Nantucket, MA

2:43 AM EDT on August 05, 2015 (GMT -0400)
Hummock Pond | | Change Station
CLOSE
Current Station
Personal Weather Station
Location: Nantucket, MA
Elevation: 36 ft
Nearby Weather Stations

Elev 36 ft 41.27 °N, 70.12 °W | Updated 7 minutes ago

Fog
Fog
70.9 °F
Feels Like 70.9 °F
N
0.0
Wind Variable Wind from SW

Today
High -- | Low -- °F
--% Chance of Precip.
Yesterday
High -- | Low -- °F
Precip. -- in
5:39 AM 7:52 PM
Waning Gibbous, 70% visible
Pressure 29.88 in
Visibility 0.2 miles
Clouds
Dew Point 71 °F
Humidity 99%
Rainfall 0.00 in
Snow Depth Not available.
UV Not available.
Pollen 7.30 out of 12
Air Quality Not available.
Flu Activity Not available.
SPECI KACK 050639Z 25005KT 1/4SM R24/1600V2200FT FG VV002 22/21 A2988 RMK AO2 T02170211

More Conditions Fewer Conditions

Pressure 29.88 in
Visibility 0.2 miles
Clouds
Dew Point 71 °F
Humidity 99%
Rainfall 0.00 in
Snow Depth Not available.
UV Not available.
Pollen 7.30 out of 12
Air Quality Not available.
Flu Activity Not available.
SPECI KACK 050639Z 25005KT 1/4SM R24/1600V2200FT FG VV002 22/21 A2988 RMK AO2 T02170211

More Conditions Fewer Conditions

10-Day Weather Forecast

×

Almanac

Astronomy

Aug. 05, 2015 Rise Set
Actual Time
Civil Twilight
Nautical Twilight
Astronomical Twilight
Moon
Length of Visible Light
Length of Day
Tomorrow will be .
, % of the Moon is Illuminated

Today's Extremes

State Highs State Lows

Community

WunderPhotos

Upload Photos

1,844,105 photos uploaded!

WunderBlogs® & News

Nearby

Air Quality

  Air Quality AQ Index Pollutant
Not available.

Snow Depth

Station Depth Elevation

Earthquake Activity

City Distance Mag. Time & Date
Minimum magnitude displayed is 2.5.

Coastal Water Temperatures

Place Temperature

Stations

Nearby Weather Stations

Station Location Temp. Windchill Dew Point Humidity Wind Precip. Elev Updated Type